Time;durP1;ratioP1;P1;durP2;ratioP2;P2;SDS_P1;SDS_P2;PMS_P1;PMS_P2;Temp;Humidity;BMP_temperature;BMP_pressure;BME280_temperature;BME280_humidity;BME280_pressure;Samples;Min_cycle;Max_cycle;Signal;HPM_P1;HPM_P2
2020/12/02 00:00:32;;;;;;;6.30;3.45;;;;;;;25.85;29.52;96569.31;4983105;28;20130;-42
2020/12/02 00:03:13;;;;;;;9.90;3.38;;;;;;;25.82;29.76;96571.16;4976108;28;20169;-42
2020/12/02 00:05:47;;;;;;;6.82;3.15;;;;;;;25.82;29.60;96573.78;4982581;28;20073;-41
2020/12/02 00:08:22;;;;;;;7.65;3.40;;;;;;;25.84;29.76;96576.31;4971107;28;20042;-40
2020/12/02 00:10:48;;;;;;;7.90;3.40;;;;;;;25.77;29.67;96575.84;4973198;28;20121;-42
2020/12/02 00:13:15;;;;;;;7.05;3.30;;;;;;;25.67;30.05;96578.13;4977453;28;20050;-39
2020/12/02 00:15:41;;;;;;;4.88;2.95;;;;;;;25.55;29.93;96574.38;4971612;28;20397;-41
2020/12/02 00:18:06;;;;;;;8.23;3.53;;;;;;;25.45;30.09;96571.41;4980676;28;20041;-42
2020/12/02 00:20:32;;;;;;;7.63;3.40;;;;;;;25.42;30.39;96573.38;4969087;28;20049;-43
2020/12/02 00:22:57;;;;;;;7.47;3.20;;;;;;;25.41;30.46;96567.28;4978516;28;20042;-41
2020/12/02 00:25:23;;;;;;;5.47;2.97;;;;;;;25.42;30.35;96560.25;4986481;28;20034;-43
2020/12/02 00:27:48;;;;;;;5.72;3.42;;;;;;;25.44;30.41;96566.28;4972357;28;20053;-42
2020/12/02 00:30:14;;;;;;;5.80;3.25;;;;;;;25.50;30.21;96565.91;4980081;28;20038;-40
2020/12/02 00:32:42;;;;;;;6.75;3.40;;;;;;;25.55;30.10;96557.81;4974562;28;20050;-38
2020/12/02 00:35:15;;;;;;;5.47;3.03;;;;;;;25.60;30.06;96555.78;4985359;28;20504;-39
2020/12/02 00:37:40;;;;;;;9.10;3.15;;;;;;;25.66;29.96;96557.22;4974456;28;20125;-40
2020/12/02 00:40:06;;;;;;;6.57;3.03;;;;;;;25.71;29.73;96547.31;4968793;28;20060;-43
2020/12/02 00:42:32;;;;;;;6.05;3.35;;;;;;;25.75;29.73;96554.09;4978259;28;20050;-44
2020/12/02 00:44:57;;;;;;;5.97;3.00;;;;;;;25.79;29.88;96555.59;4985138;28;20050;-40
2020/12/02 00:47:24;;;;;;;7.22;3.03;;;;;;;25.81;29.65;96552.88;4980856;28;20347;-41
2020/12/02 00:49:50;;;;;;;7.55;3.28;;;;;;;25.82;29.40;96558.03;4979271;28;20085;-38
2020/12/02 00:52:16;;;;;;;6.53;3.17;;;;;;;25.86;29.55;96550.00;4975770;28;20034;-37
2020/12/02 00:54:41;;;;;;;10.90;3.15;;;;;;;25.87;29.44;96552.53;4979495;28;20092;-39
2020/12/02 00:57:11;;;;;;;6.25;2.42;;;;;;;25.89;29.26;96553.28;4985574;28;20819;-41
2020/12/02 00:59:37;;;;;;;6.20;2.58;;;;;;;25.91;29.32;96554.06;5002775;28;20479;-41
2020/12/02 01:02:28;;;;;;;5.57;2.55;;;;;;;25.93;29.56;96551.34;4988063;28;20034;-44
2020/12/02 01:04:53;;;;;;;6.22;2.92;;;;;;;25.92;29.33;96547.00;4959135;28;20066;-40
2020/12/02 01:07:19;;;;;;;4.50;2.75;;;;;;;25.95;29.15;96549.47;4972385;28;20534;-41
2020/12/02 01:09:45;;;;;;;8.57;2.80;;;;;;;25.95;29.16;96546.84;4974624;28;20044;-42
2020/12/02 01:12:13;;;;;;;8.15;2.90;;;;;;;25.95;29.22;96555.56;4984656;28;20463;-42
2020/12/02 01:14:38;;;;;;;5.90;2.95;;;;;;;25.96;29.41;96544.13;4976421;28;20050;-41
2020/12/02 01:17:04;;;;;;;5.35;3.08;;;;;;;25.96;29.22;96552.00;4978220;28;21021;-40
2020/12/02 01:19:31;;;;;;;7.78;2.88;;;;;;;25.99;29.11;96545.72;4973270;28;20040;-41
2020/12/02 01:22:20;;;;;;;5.82;2.95;;;;;;;25.98;29.19;96548.44;4975326;28;20466;-39
2020/12/02 01:25:03;;;;;;;5.03;3.08;;;;;;;25.98;29.18;96551.91;4976080;28;20018;-40
2020/12/02 01:27:35;;;;;;;4.60;2.70;;;;;;;25.97;29.09;96552.81;4974961;28;20058;-44
2020/12/02 01:30:00;;;;;;;;;;;;;;;25.97;29.11;96552.81;4957869;28;20410;-40
2020/12/02 01:32:27;;;;;;;8.40;2.67;;;;;;;25.95;29.13;96557.34;4983086;28;19922;-42
2020/12/02 01:34:53;;;;;;;3.63;2.38;;;;;;;25.92;29.22;96547.88;4981335;28;20042;-42
2020/12/02 01:37:28;;;;;;;6.72;2.97;;;;;;;25.94;29.05;96553.84;4967745;28;20186;-38
2020/12/02 01:40:02;;;;;;;5.50;2.33;;;;;;;25.93;29.20;96546.91;4972784;28;20280;-39
2020/12/02 01:42:28;;;;;;;5.90;2.50;;;;;;;25.91;29.15;96542.69;4994889;28;20038;-41
2020/12/02 01:44:54;;;;;;;5.60;2.92;;;;;;;25.92;29.30;96544.38;4969742;28;20030;-43
2020/12/02 01:47:41;;;;;;;3.90;2.53;;;;;;;25.92;29.23;96544.38;4974851;28;20077;-44
2020/12/02 01:50:22;;;;;;;4.18;2.28;;;;;;;25.91;29.09;96542.69;4978460;28;20064;-41
2020/12/02 01:53:03;;;;;;;4.30;2.53;;;;;;;25.91;29.18;96538.31;4999256;28;20042;-42
2020/12/02 01:55:43;;;;;;;3.28;2.00;;;;;;;25.90;29.22;96541.00;4958555;28;20049;-39
2020/12/02 01:58:22;;;;;;;4.55;2.42;;;;;;;25.91;29.20;96532.19;4973649;28;20049;-41
2020/12/02 02:00:53;;;;;;;4.13;2.38;;;;;;;25.90;29.03;96544.47;4955527;28;20051;-43
2020/12/02 02:03:18;;;;;;;3.17;2.10;;;;;;;25.89;29.25;96545.41;4940627;28;20034;-41
2020/12/02 02:05:57;;;;;;;3.45;2.20;;;;;;;25.88;29.10;96530.59;4959378;28;20125;-44
2020/12/02 02:08:25;;;;;;;5.18;2.40;;;;;;;25.87;29.16;96539.41;4966043;28;20576;-43
2020/12/02 02:10:51;;;;;;;3.38;2.00;;;;;;;25.88;29.27;96532.34;4967792;28;20043;-41
2020/12/02 02:13:50;;;;;;;3.38;1.90;;;;;;;25.86;29.45;96534.25;4969848;28;20136;-43
2020/12/02 02:16:22;;;;;;;4.18;2.05;;;;;;;25.86;29.26;96534.25;4969875;28;20047;-40
2020/12/02 02:18:48;;;;;;;3.10;1.95;;;;;;;25.85;29.46;96538.63;4974815;28;20311;-44
2020/12/02 02:21:21;;;;;;;3.28;2.13;;;;;;;25.85;29.27;96533.38;4956354;28;20050;-40
2020/12/02 02:23:47;;;;;;;3.30;1.92;;;;;;;25.83;29.13;96536.09;4968152;28;20037;-41
2020/12/02 02:26:28;;;;;;;5.00;2.30;;;;;;;25.85;29.08;96533.38;4973679;28;20499;-37
2020/12/02 02:29:12;;;;;;;4.03;2.03;;;;;;;25.86;29.89;96526.38;4985996;28;20434;-41
2020/12/02 02:31:44;;;;;;;3.78;2.17;;;;;;;25.87;29.25;96525.44;4962224;28;20050;-42
2020/12/02 02:34:10;;;;;;;3.38;1.70;;;;;;;25.86;29.29;96526.38;4958725;28;20221;-42
2020/12/02 02:36:36;;;;;;;3.55;2.25;;;;;;;25.85;29.29;96522.88;4958521;28;20547;-41
2020/12/02 02:39:01;;;;;;;2.85;1.90;;;;;;;25.82;29.15;96517.84;4965190;28;20046;-41
2020/12/02 02:41:27;;;;;;;3.70;2.10;;;;;;;25.83;29.28;96520.34;4960029;28;20069;-41
2020/12/02 02:43:53;;;;;;;3.08;1.77;;;;;;;25.82;29.24;96508.16;4972181;28;20050;-44
2020/12/02 02:46:18;;;;;;;4.15;2.20;;;;;;;25.83;29.19;96516.91;4962030;28;20039;-40
2020/12/02 02:48:43;;;;;;;3.15;1.88;;;;;;;25.83;29.19;96515.09;4966503;28;20069;-41
2020/12/02 02:51:09;;;;;;;3.72;2.15;;;;;;;25.82;29.24;96508.16;4962172;28;20053;-43
2020/12/02 02:53:34;;;;;;;3.67;1.75;;;;;;;25.81;29.17;96511.72;4956783;28;20700;-42
2020/12/02 02:56:00;;;;;;;6.50;2.50;;;;;;;25.82;29.28;96509.97;4977104;28;20093;-40
2020/12/02 02:58:26;;;;;;;3.13;1.95;;;;;;;25.82;29.25;96512.59;4981854;28;20053;-41
2020/12/02 03:00:56;;;;;;;3.33;1.88;;;;;;;25.82;29.11;96512.59;4966861;28;20046;-40
2020/12/02 03:03:21;;;;;;;3.50;1.83;;;;;;;25.81;29.25;96516.97;4972775;28;20489;-42
2020/12/02 03:05:47;;;;;;;3.15;1.88;;;;;;;25.80;29.03;96507.41;4984526;28;20144;-43
2020/12/02 03:08:13;;;;;;;3.25;1.98;;;;;;;25.79;29.12;96513.59;4970023;28;20036;-36
2020/12/02 03:10:40;;;;;;;4.50;1.60;;;;;;;25.79;29.38;96508.34;4965975;28;20785;-40
2020/12/02 03:13:15;;;;;;;3.13;1.98;;;;;;;25.76;29.23;96503.28;4975894;28;20649;-39
2020/12/02 03:15:40;;;;;;;3.38;1.75;;;;;;;25.76;29.18;96505.91;4988486;28;20038;-46
2020/12/02 03:18:06;;;;;;;3.90;1.80;;;;;;;25.77;29.23;96510.22;4968534;28;20046;-40
2020/12/02 03:20:40;;;;;;;2.38;1.70;;;;;;;25.73;29.19;96497.38;4989197;28;20038;-43
2020/12/02 03:23:05;;;;;;;2.45;1.50;;;;;;;25.76;29.33;96503.28;4967414;28;20666;-42
2020/12/02 03:25:32;;;;;;;3.42;1.80;;;;;;;25.75;29.23;96501.59;4964085;28;20039;-39
2020/12/02 03:27:57;;;;;;;2.78;1.52;;;;;;;25.76;29.20;96508.53;4969310;28;20043;-42
2020/12/02 03:30:23;;;;;;;2.47;1.80;;;;;;;25.76;29.12;96500.66;4964292;28;20926;-41
2020/12/02 03:32:48;;;;;;;3.60;1.83;;;;;;;25.75;29.12;96504.22;4967237;28;20073;-42
2020/12/02 03:35:14;;;;;;;2.83;1.92;;;;;;;25.75;29.21;96501.59;4978929;28;20057;-41
2020/12/02 03:37:39;;;;;;;2.50;1.42;;;;;;;25.76;29.04;96507.66;4972577;28;20054;-38
2020/12/02 03:40:05;;;;;;;2.22;1.70;;;;;;;25.75;29.08;96506.00;4962510;28;20066;-44
2020/12/02 03:42:31;;;;;;;2.22;1.48;;;;;;;25.76;29.11;96508.53;4970464;28;20037;-39
2020/12/02 03:44:57;;;;;;;2.53;1.70;;;;;;;25.75;29.22;96498.97;4968886;28;20042;-39
2020/12/02 03:47:22;;;;;;;2.95;1.60;;;;;;;25.76;29.29;96502.41;4970428;28;20173;-42
2020/12/02 03:49:48;;;;;;;5.13;1.80;;;;;;;25.75;29.14;96504.22;4963873;28;20058;-41
2020/12/02 03:52:14;;;;;;;4.63;1.80;;;;;;;25.74;29.35;96502.50;4953739;28;20031;-43
2020/12/02 03:54:40;;;;;;;2.30;1.67;;;;;;;25.74;29.34;96505.13;4953127;28;20099;-40
2020/12/02 03:57:05;;;;;;;2.38;1.60;;;;;;;25.74;29.24;96505.13;4965972;28;20070;-42
2020/12/02 03:59:30;;;;;;;1.83;1.70;;;;;;;25.73;29.35;96495.56;4969050;28;20757;-41
2020/12/02 04:01:56;;;;;;;2.67;1.77;;;;;;;25.73;29.19;96498.19;4981020;28;20035;-43
2020/12/02 04:04:22;;;;;;;2.47;1.73;;;;;;;25.74;29.27;96509.56;4968752;28;20116;-43
2020/12/02 04:06:48;;;;;;;16.25;3.08;;;;;;;25.70;28.50;96498.38;4966733;28;20038;-43
2020/12/02 04:09:14;;;;;;;6.60;2.47;;;;;;;25.67;28.63;96504.63;4966600;28;20405;-44
2020/12/02 04:11:40;;;;;;;2.45;1.60;;;;;;;25.64;29.09;96499.59;4964265;28;20570;-41
2020/12/02 04:14:06;;;;;;;2.63;2.00;;;;;;;25.65;29.42;96500.41;4965082;28;20057;-41
2020/12/02 04:16:31;;;;;;;2.78;1.85;;;;;;;25.65;29.26;96505.66;4960746;28;20127;-41
2020/12/02 04:18:58;;;;;;;4.88;1.85;;;;;;;25.63;29.19;96491.78;4958798;28;20049;-43
2020/12/02 04:21:24;;;;;;;6.03;1.77;;;;;;;25.63;29.04;96492.63;4961677;28;20632;-41
2020/12/02 04:23:51;;;;;;;4.05;1.80;;;;;;;25.64;29.16;96502.22;4960652;28;20039;-43
2020/12/02 04:26:17;;;;;;;2.15;1.60;;;;;;;25.64;29.17;96493.47;4960483;28;20047;-43
2020/12/02 04:28:42;;;;;;;3.70;1.70;;;;;;;25.64;29.06;96493.47;4957975;28;20791;-42
2020/12/02 04:31:08;;;;;;;4.35;1.98;;;;;;;25.64;29.06;96488.22;4962796;28;20039;-39
2020/12/02 04:33:33;;;;;;;2.60;1.60;;;;;;;25.63;29.34;96487.38;4960525;28;20054;-40
2020/12/02 04:35:59;;;;;;;3.55;1.80;;;;;;;25.64;29.16;96480.34;4946044;28;20117;-44
2020/12/02 04:38:25;;;;;;;2.05;1.50;;;;;;;25.64;29.27;96480.34;4961934;28;20058;-43
2020/12/02 04:40:50;;;;;;;2.00;1.50;;;;;;;25.63;29.09;96482.13;4962825;28;20052;-40
2020/12/02 04:43:21;;;;;;;2.10;1.90;;;;;;;25.64;29.16;96482.97;4967097;28;20042;-38
2020/12/02 04:45:47;;;;;;;2.58;1.50;;;;;;;25.63;29.14;96481.31;4958859;28;20038;-42
2020/12/02 04:48:15;;;;;;;2.78;1.63;;;;;;;25.64;29.13;96477.72;4976589;28;20041;-38
2020/12/02 04:50:40;;;;;;;3.15;1.60;;;;;;;25.63;29.27;96479.50;4972986;28;20392;-41
2020/12/02 04:53:10;;;;;;;3.83;1.58;;;;;;;25.63;29.03;96481.31;4967748;28;20053;-39
2020/12/02 04:55:36;;;;;;;2.08;1.48;;;;;;;25.62;29.10;96480.44;4977702;28;20085;-41
2020/12/02 04:58:14;;;;;;;2.90;1.70;;;;;;;25.61;29.27;96477.91;4978496;28;20132;-42
2020/12/02 05:00:40;;;;;;;1.70;1.42;;;;;;;25.62;29.18;96482.25;4979419;28;20187;-43
2020/12/02 05:03:10;;;;;;;4.15;1.73;;;;;;;25.63;29.07;96481.31;4979754;28;20031;-41
2020/12/02 05:05:35;;;;;;;1.55;1.30;;;;;;;25.61;28.96;96488.41;4969898;28;20046;-38
2020/12/02 05:08:19;;;;;;;1.77;1.65;;;;;;;25.60;29.06;96477.06;4973273;28;20042;-37
2020/12/02 05:10:45;;;;;;;2.25;1.67;;;;;;;25.60;29.19;96477.06;4971591;28;20033;-38
2020/12/02 05:13:10;;;;;;;2.10;1.52;;;;;;;25.60;29.25;96479.69;4976549;28;20043;-39
2020/12/02 05:15:37;;;;;;;3.63;1.77;;;;;;;25.59;29.29;96480.59;4977047;28;21284;-42
2020/12/02 05:18:15;;;;;;;2.80;1.50;;;;;;;25.59;29.10;96491.09;4983266;28;20535;-37
2020/12/02 05:20:44;;;;;;;2.47;1.98;;;;;;;25.57;28.89;96482.50;4969031;28;20057;-43
2020/12/02 05:23:19;;;;;;;5.35;1.40;;;;;;;25.57;29.26;96491.22;4981057;28;20105;-43
2020/12/02 05:25:45;;;;;;;2.05;1.27;;;;;;;25.56;29.35;96489.50;4981716;28;20077;-41
2020/12/02 05:28:38;;;;;;;2.42;1.65;;;;;;;25.57;29.12;96495.59;4981674;28;20041;-38
2020/12/02 05:31:24;;;;;;;1.85;1.60;;;;;;;25.54;29.17;96478.22;4966437;28;20062;-43
2020/12/02 05:33:50;;;;;;;2.03;1.45;;;;;;;25.59;29.35;96490.28;4974443;28;20039;-43
2020/12/02 05:36:17;;;;;;;1.65;1.48;;;;;;;25.59;29.14;96498.16;4955262;28;20035;-40
2020/12/02 05:38:55;;;;;;;1.60;1.50;;;;;;;25.57;29.26;96492.97;4947152;28;20156;-41
2020/12/02 05:41:21;;;;;;;2.22;1.67;;;;;;;25.56;29.32;96497.38;4980338;28;20455;-41
2020/12/02 05:44:20;;;;;;;1.58;1.10;;;;;;;25.55;29.31;96495.66;4963512;28;20047;-42
2020/12/02 05:46:54;;;;;;;1.88;1.30;;;;;;;25.56;29.37;96507.88;4949570;28;20066;-42
2020/12/02 05:49:38;;;;;;;3.60;1.38;;;;;;;25.56;29.24;96492.13;4960635;28;20206;-39
2020/12/02 05:52:03;;;;;;;2.03;1.33;;;;;;;25.56;29.27;96496.56;4949809;28;20791;-41
2020/12/02 05:54:28;;;;;;;1.38;1.25;;;;;;;25.57;29.20;96503.47;4951231;28;20039;-40
2020/12/02 05:56:56;;;;;;;2.30;1.50;;;;;;;25.54;29.37;96499.22;4953741;28;20039;-41
2020/12/02 05:59:22;;;;;;;3.42;1.60;;;;;;;25.51;29.40;96498.56;4961542;28;20038;-41
2020/12/02 06:01:48;;;;;;;1.33;1.20;;;;;;;25.49;29.46;96492.53;4973688;28;20586;-40
2020/12/02 06:04:14;;;;;;;2.85;1.75;;;;;;;25.47;29.53;96492.63;4978249;28;20042;-43
2020/12/02 06:06:40;;;;;;;1.77;1.50;;;;;;;25.43;29.30;96497.19;4962503;28;20496;-40
2020/12/02 06:09:05;;;;;;;2.75;1.70;;;;;;;25.42;29.66;96494.66;4966906;28;20061;-41
2020/12/02 06:11:33;;;;;;;3.35;1.63;;;;;;;25.39;29.45;96495.69;4979885;28;20042;-43
2020/12/02 06:14:30;;;;;;;1.95;1.50;;;;;;;25.37;29.52;96491.47;4977268;28;20112;-41
2020/12/02 06:16:56;;;;;;;2.58;2.00;;;;;;;25.33;29.33;96492.56;4971817;28;20657;-39
2020/12/02 06:19:38;;;;;;;6.47;1.70;;;;;;;25.30;29.18;96486.56;4976412;28;20058;-43
2020/12/02 06:22:04;;;;;;;5.22;1.88;;;;;;;25.29;29.11;96489.28;4975975;28;20030;-43
2020/12/02 06:24:33;;;;;;;2.88;1.83;;;;;;;25.27;29.34;96494.59;4973023;28;20049;-40
2020/12/02 06:26:59;;;;;;;1.85;1.70;;;;;;;25.26;29.20;96492.91;4970453;28;20046;-39
2020/12/02 06:29:37;;;;;;;6.10;1.58;;;;;;;25.28;29.19;96498.91;4974776;28;20403;-37
2020/12/02 06:32:18;;;;;;;2.45;1.90;;;;;;;25.25;29.34;96493.81;4972660;28;20666;-40
2020/12/02 06:34:44;;;;;;;3.42;1.80;;;;;;;25.25;29.60;96493.81;4976838;28;20955;-45
2020/12/02 06:37:12;;;;;;;3.42;1.80;;;;;;;25.27;29.55;96497.22;4971443;28;20045;-40
2020/12/02 06:39:43;;;;;;;4.32;1.60;;;;;;;25.27;29.50;96497.22;4974768;28;20585;-40
2020/12/02 06:42:22;;;;;;;3.17;1.67;;;;;;;25.28;29.81;96487.59;4975127;28;20042;-40
2020/12/02 06:45:21;;;;;;;5.68;1.80;;;;;;;25.29;29.53;96489.28;4970716;28;20095;-41
2020/12/02 06:47:49;;;;;;;3.30;1.75;;;;;;;25.30;29.71;96483.09;4976604;28;20073;-40
2020/12/02 06:50:15;;;;;;;4.05;2.15;;;;;;;25.29;29.50;96479.59;4978521;28;20034;-38
2020/12/02 06:52:41;;;;;;;1.95;1.33;;;;;;;25.31;29.55;96488.25;4973436;28;20042;-43
2020/12/02 06:55:37;;;;;;;3.20;1.70;;;;;;;25.34;29.57;96491.63;4975838;28;20096;-39
2020/12/02 06:58:30;;;;;;;1.60;1.25;;;;;;;25.34;29.71;96483.75;4975154;28;20055;-41
2020/12/02 07:00:58;;;;;;;2.63;1.00;;;;;;;25.34;29.91;96487.22;4969307;28;20086;-42
2020/12/02 07:03:41;;;;;;;1.90;1.20;;;;;;;25.31;29.79;96477.75;4959484;28;20039;-43
2020/12/02 07:06:24;;;;;;;2.47;1.20;;;;;;;25.34;29.87;96483.75;4940991;28;20125;-42
2020/12/02 07:08:58;;;;;;;1.27;1.15;;;;;;;25.35;29.98;96485.47;4955241;28;20029;-41
2020/12/02 07:11:24;;;;;;;5.70;1.65;;;;;;;25.34;30.00;96478.50;4952437;28;20046;-40
2020/12/02 07:13:51;;;;;;;3.65;1.50;;;;;;;25.36;29.79;96481.91;4959627;28;20051;-43
2020/12/02 07:16:30;;;;;;;4.55;1.35;;;;;;;25.36;29.80;96489.78;4960106;28;20039;-42
2020/12/02 07:19:12;;;;;;;2.47;1.20;;;;;;;25.34;30.02;96489.00;4974406;28;20113;-41
2020/12/02 07:21:53;;;;;;;3.95;1.45;;;;;;;25.25;29.83;96493.81;4971418;28;20412;-43
2020/12/02 07:24:49;;;;;;;1.98;1.48;;;;;;;25.17;29.98;96494.25;4972237;28;20031;-41
2020/12/02 07:27:16;;;;;;;1.60;1.38;;;;;;;25.10;30.12;96499.94;4969100;28;20058;-43
2020/12/02 07:29:43;;;;;;;4.32;1.80;;;;;;;25.03;30.20;96497.66;4972958;28;20070;-42
2020/12/02 07:32:18;;;;;;;1.55;1.45;;;;;;;25.01;30.44;96493.41;4974392;28;20141;-43
2020/12/02 07:34:44;;;;;;;1.80;1.50;;;;;;;25.00;30.55;96491.72;4971263;28;20030;-41
2020/12/02 07:37:11;;;;;;;1.55;1.10;;;;;;;25.03;30.19;96502.91;4968181;28;20053;-43
2020/12/02 07:39:46;;;;;;;1.67;1.40;;;;;;;25.08;30.13;96496.53;4974934;28;20037;-42
2020/12/02 07:42:50;;;;;;;1.50;1.40;;;;;;;25.12;30.15;96503.31;4971047;28;20054;-41
2020/12/02 07:45:15;;;;;;;2.08;1.52;;;;;;;25.12;29.87;96493.66;4968193;28;20042;-41
2020/12/02 07:47:55;;;;;;;2.05;1.60;;;;;;;25.20;29.98;96500.28;4959979;28;20031;-45
2020/12/02 07:50:24;;;;;;;2.97;1.60;;;;;;;25.22;29.75;96496.63;4963513;28;20093;-43
2020/12/02 07:52:50;;;;;;;2.38;1.50;;;;;;;25.25;29.83;96501.69;4962261;28;20039;-41
2020/12/02 07:55:19;;;;;;;1.65;1.30;;;;;;;25.29;29.61;96495.34;4935062;28;20042;-44
2020/12/02 07:57:45;;;;;;;4.32;1.40;;;;;;;25.31;29.65;96493.50;4952999;28;20049;-41
2020/12/02 08:00:25;;;;;;;2.40;1.67;;;;;;;25.34;29.56;96499.50;4953452;28;20042;-43
2020/12/02 08:02:51;;;;;;;1.50;1.40;;;;;;;25.36;29.61;96505.50;4952318;28;20113;-39
2020/12/02 08:05:54;;;;;;;4.60;2.60;;;;;;;25.37;28.55;96504.56;4951121;28;20054;-43
2020/12/02 08:08:21;;;;;;;6.00;4.35;;;;;;;25.37;26.20;96502.81;4947866;28;20054;-42
2020/12/02 08:10:46;;;;;;;6.13;5.10;;;;;;;25.35;25.57;96501.22;4948635;28;20573;-42
2020/12/02 08:13:17;;;;;;;5.75;4.80;;;;;;;25.27;25.68;96502.47;4951699;28;20039;-42
2020/12/02 08:16:03;;;;;;;6.72;4.38;;;;;;;25.17;25.94;96496.06;4950281;28;20054;-44
2020/12/02 08:18:30;;;;;;;5.38;4.40;;;;;;;25.07;26.19;96502.72;4947000;28;20040;-41
2020/12/02 08:21:12;;;;;;;12.80;4.38;;;;;;;24.97;26.16;96503.22;4950234;28;20050;-42
2020/12/02 08:23:38;;;;;;;5.18;4.50;;;;;;;24.90;26.02;96505.31;4938858;28;20789;-41
2020/12/02 08:26:15;;;;;;;5.32;4.65;;;;;;;24.84;25.73;96504.81;4945821;28;20128;-44
2020/12/02 08:28:41;;;;;;;7.03;4.65;;;;;;;24.75;25.63;96501.72;4950062;28;20030;-41
2020/12/02 08:31:18;;;;;;;5.85;4.40;;;;;;;24.66;26.14;96504.84;4949305;28;20876;-43
2020/12/02 08:34:12;;;;;;;5.10;3.97;;;;;;;24.56;26.19;96498.41;4948737;28;20042;-45
2020/12/02 08:36:39;;;;;;;5.95;4.68;;;;;;;24.47;26.12;96497.94;4946982;28;20045;-42
2020/12/02 08:39:05;;;;;;;5.07;4.10;;;;;;;24.42;26.50;96499.09;4950322;28;20077;-41
2020/12/02 08:41:40;;;;;;;5.20;4.05;;;;;;;24.36;26.74;96489.78;4949470;28;20404;-43
2020/12/02 08:44:11;;;;;;;4.57;4.10;;;;;;;24.35;26.81;96499.44;4948200;28;20042;-43
2020/12/02 08:46:57;;;;;;;5.20;4.40;;;;;;;24.35;26.85;96503.81;4948693;28;20045;-40
2020/12/02 08:49:26;;;;;;;4.57;3.30;;;;;;;24.35;28.16;96499.44;4963871;28;20141;-42
2020/12/02 08:51:51;;;;;;;6.82;2.47;;;;;;;24.36;29.13;96500.25;4955895;28;20046;-41
2020/12/02 08:54:22;;;;;;;5.53;2.58;;;;;;;24.42;29.34;96502.59;4953407;28;20647;-44
2020/12/02 08:56:48;;;;;;;3.45;2.40;;;;;;;24.49;29.08;96495.25;4949702;28;21202;-40
2020/12/02 08:59:14;;;;;;;2.75;1.95;;;;;;;24.55;29.03;96494.91;4948194;28;20039;-41
2020/12/02 09:01:40;;;;;;;8.18;2.30;;;;;;;24.62;29.22;96484.97;4949991;28;20049;-41
2020/12/02 09:04:06;;;;;;;4.95;1.85;;;;;;;24.71;28.99;96489.72;4951172;28;20482;-44
2020/12/02 09:06:32;;;;;;;5.95;2.10;;;;;;;24.76;28.95;96481.63;4954121;28;20058;-42
2020/12/02 09:08:58;;;;;;;2.55;2.05;;;;;;;24.78;29.18;96477.97;4952465;28;20042;-42
2020/12/02 09:11:26;;;;;;;3.42;2.10;;;;;;;24.83;29.04;96482.13;4949240;28;20105;-43
2020/12/02 09:13:52;;;;;;;3.30;2.30;;;;;;;24.86;29.12;96468.91;4952233;28;20527;-38
2020/12/02 09:16:22;;;;;;;2.58;2.15;;;;;;;24.89;29.16;96476.56;4949684;28;20163;-41
2020/12/02 09:18:48;;;;;;;3.28;2.00;;;;;;;24.92;29.13;96471.16;4950795;28;20047;-41
2020/12/02 09:21:13;;;;;;;2.05;1.65;;;;;;;24.92;29.03;96471.16;4952379;28;20461;-40
2020/12/02 09:23:38;;;;;;;3.42;1.85;;;;;;;24.93;28.95;96472.84;4949283;28;20456;-41
2020/12/02 09:26:04;;;;;;;8.07;1.90;;;;;;;24.97;29.36;96474.38;4951332;28;20050;-42
2020/12/02 09:28:30;;;;;;;2.08;1.65;;;;;;;24.96;29.16;96472.69;4952181;28;20520;-42
2020/12/02 09:30:55;;;;;;;2.97;1.52;;;;;;;24.95;29.32;96471.00;4953396;28;20078;-43
2020/12/02 09:33:21;;;;;;;6.25;2.10;;;;;;;24.96;29.08;96472.69;4955944;28;20039;-40
2020/12/02 09:35:46;;;;;;;4.35;1.88;;;;;;;24.97;29.26;96469.13;4951888;28;20113;-44
2020/12/02 09:38:12;;;;;;;3.60;1.95;;;;;;;24.98;29.36;96465.59;4957483;28;20046;-41
2020/12/02 09:40:38;;;;;;;4.93;1.70;;;;;;;24.98;29.42;96475.25;4956863;28;20043;-42
2020/12/02 09:43:29;;;;;;;2.70;1.70;;;;;;;25.00;29.28;96462.88;4953354;28;20600;-41
2020/12/02 09:45:59;;;;;;;3.35;1.65;;;;;;;24.98;29.40;96457.72;4962001;28;20043;-40
2020/12/02 09:48:27;;;;;;;2.67;1.73;;;;;;;25.02;29.57;96461.88;4958432;28;20508;-44
2020/12/02 09:50:53;;;;;;;2.53;1.75;;;;;;;25.03;29.62;96466.19;4954592;28;20038;-41
2020/12/02 09:53:24;;;;;;;6.20;1.65;;;;;;;25.05;29.59;96464.31;4950658;28;20262;-44
2020/12/02 09:55:49;;;;;;;3.38;1.90;;;;;;;25.09;29.66;96461.53;4946895;28;20285;-44
2020/12/02 09:58:15;;;;;;;2.97;1.60;;;;;;;25.10;29.53;96457.97;4953965;28;20526;-42
2020/12/02 10:00:40;;;;;;;5.35;1.70;;;;;;;25.12;29.55;96456.09;4959870;28;20616;-42
2020/12/02 10:03:17;;;;;;;4.22;1.85;;;;;;;25.12;29.67;96454.34;4954598;28;20042;-42
2020/12/02 10:06:00;;;;;;;7.60;1.90;;;;;;;25.13;29.83;96447.34;4957732;28;20043;-43
2020/12/02 10:08:31;;;;;;;4.50;1.80;;;;;;;25.14;29.97;96451.63;4953908;28;20790;-41
2020/12/02 10:11:16;;;;;;;10.73;2.78;;;;;;;25.13;29.84;96442.09;4946762;28;20156;-43
2020/12/02 10:13:54;;;;;;;2.20;1.60;;;;;;;25.11;30.02;96436.94;4954788;28;20039;-39
2020/12/02 10:16:33;;;;;;;4.65;1.55;;;;;;;25.10;30.02;96432.63;4948345;28;20088;-41
2020/12/02 10:19:33;;;;;;;4.72;1.83;;;;;;;25.11;29.96;96433.44;4936890;28;20050;-42
2020/12/02 10:22:08;;;;;;;9.70;2.03;;;;;;;25.13;30.08;96421.94;4952922;28;20031;-42
2020/12/02 10:25:04;;;;;;;2.45;1.40;;;;;;;25.14;29.98;96422.78;4952246;28;20603;-41
2020/12/02 10:27:43;;;;;;;2.15;1.45;;;;;;;25.13;30.31;96419.31;4951785;28;20026;-40
2020/12/02 10:30:14;;;;;;;3.90;2.08;;;;;;;25.15;30.16;96411.38;4951361;28;20089;-41
2020/12/02 10:32:53;;;;;;;;;;;;;;;25.15;30.09;96403.50;4950810;28;20691;-44
2020/12/02 10:35:19;;;;;;;2.35;1.60;;;;;;;25.16;30.16;96399.94;4981453;28;20380;-40
2020/12/02 10:37:45;;;;;;;2.28;1.60;;;;;;;25.18;30.25;96396.28;4952371;28;20329;-42
2020/12/02 10:40:12;;;;;;;6.13;1.77;;;;;;;25.22;30.31;96393.50;4952285;28;20054;-40
2020/12/02 10:43:00;;;;;;;3.60;1.90;;;;;;;25.23;30.13;96389.94;4950759;28;20043;-42
2020/12/02 10:45:26;;;;;;;2.50;1.50;;;;;;;25.22;29.96;96383.03;4947435;28;20689;-42
2020/12/02 10:48:22;;;;;;;1.88;1.42;;;;;;;25.23;30.14;96385.56;4949196;28;20039;-40
2020/12/02 10:50:47;;;;;;;2.85;1.55;;;;;;;25.22;30.13;96376.00;4948340;28;20034;-42
2020/12/02 10:53:24;;;;;;;2.08;1.23;;;;;;;25.20;30.58;96370.00;4953122;28;20043;-40
2020/12/02 10:55:50;;;;;;;3.50;1.58;;;;;;;25.19;30.49;96373.56;4955831;28;20039;-41
2020/12/02 10:58:18;;;;;;;2.58;1.50;;;;;;;25.18;30.64;96366.63;4955735;28;20521;-44
2020/12/02 11:00:44;;;;;;;1.65;1.40;;;;;;;25.19;30.48;96365.69;4957906;28;20274;-42
2020/12/02 11:03:18;;;;;;;2.03;1.40;;;;;;;25.18;30.47;96362.22;4964842;28;20038;-40
2020/12/02 11:06:03;;;;;;;2.78;1.50;;;;;;;25.17;30.35;96354.47;4953776;28;20062;-45
2020/12/02 11:08:38;;;;;;;2.00;1.40;;;;;;;25.19;30.47;96352.56;4947439;28;20034;-42
2020/12/02 11:11:26;;;;;;;2.95;1.38;;;;;;;25.21;30.35;96350.72;4955031;28;20066;-42
2020/12/02 11:14:15;;;;;;;2.50;1.70;;;;;;;25.23;30.17;96338.34;4962435;28;20113;-42
2020/12/02 11:17:11;;;;;;;2.00;1.45;;;;;;;25.24;30.26;96334.78;4951427;28;20046;-46
2020/12/02 11:19:39;;;;;;;2.28;1.33;;;;;;;25.28;30.36;96338.94;4966802;28;20031;-40
2020/12/02 11:22:15;;;;;;;1.80;1.55;;;;;;;25.29;30.07;96335.38;4959646;28;20051;-40
2020/12/02 11:24:53;;;;;;;5.55;1.58;;;;;;;25.31;30.64;96325.66;4955652;28;20118;-43
2020/12/02 11:27:19;;;;;;;2.55;1.25;;;;;;;25.17;31.34;96330.84;4920663;28;20065;-43
2020/12/02 11:29:44;;;;;;;1.67;1.30;;;;;;;24.96;31.71;96327.66;4954497;28;20035;-40
2020/12/02 11:32:58;;;;;;;1.50;1.30;;;;;;;24.85;31.94;96323.91;4948145;28;20560;-42
2020/12/02 11:36:01;;;;;;;1.98;1.30;;;;;;;24.86;32.05;96319.50;4968347;28;20134;-44
2020/12/02 11:38:33;;;;;;;2.10;1.10;;;;;;;24.93;31.86;96315.59;4946773;28;20035;-45
2020/12/02 11:41:13;;;;;;;1.75;1.30;;;;;;;25.04;31.98;96315.81;4972965;28;20058;-43
2020/12/02 11:43:41;;;;;;;3.97;1.30;;;;;;;25.16;31.64;96313.41;4960828;28;20030;-41
2020/12/02 11:46:08;;;;;;;1.60;1.00;;;;;;;25.31;31.55;96309.06;4955647;28;20038;-37
2020/12/02 11:49:14;;;;;;;2.28;1.40;;;;;;;25.47;31.35;96308.16;4970941;28;20133;-44
2020/12/02 11:51:55;;;;;;;1.55;1.10;;;;;;;25.63;31.09;96297.63;4977245;28;20644;-42
2020/12/02 11:54:22;;;;;;;1.75;1.30;;;;;;;25.74;30.89;96300.41;4976837;28;20534;-40